Time;durP1;ratioP1;P1;durP2;ratioP2;P2;SDS_P1;SDS_P2;PMS_P1;PMS_P2;Temp;Humidity;BMP_temperature;BMP_pressure;BME280_temperature;BME280_humidity;BME280_pressure;Samples;Min_cycle;Max_cycle;Signal;HPM_P1;HPM_P2
2021/09/04 00:00:45;;;;;;;12.88;9.23;;;;;;;16.43;82.62;100552.66;6219292;23;20119;-81
2021/09/04 00:03:13;;;;;;;12.10;9.38;;;;;;;16.39;83.31;100549.34;6219581;23;20021;-81
2021/09/04 00:05:40;;;;;;;11.25;8.45;;;;;;;16.35;83.37;100553.22;6193720;23;20031;-81
2021/09/04 00:08:07;;;;;;;11.60;8.68;;;;;;;16.34;83.80;100556.84;6220843;23;20342;-81
2021/09/04 00:10:33;;;;;;;10.65;8.43;;;;;;;16.33;83.95;100552.44;6221490;23;20016;-80
2021/09/04 00:13:00;;;;;;;12.32;8.50;;;;;;;16.31;84.04;100561.53;6222462;23;20017;-79
2021/09/04 00:15:27;;;;;;;11.25;8.50;;;;;;;16.32;84.42;100556.09;6206985;23;20020;-80
2021/09/04 00:17:54;;;;;;;12.93;8.57;;;;;;;16.32;84.49;100558.75;6233119;23;20411;-81
2021/09/04 00:20:21;;;;;;;11.05;9.18;;;;;;;16.32;84.11;100557.91;6220080;23;20107;-81
2021/09/04 00:22:48;;;;;;;11.13;8.90;;;;;;;16.31;84.41;100556.19;6219213;23;20087;-81
2021/09/04 00:25:15;;;;;;;11.48;8.98;;;;;;;16.30;84.36;100563.34;6219818;23;20027;-81
2021/09/04 00:27:42;;;;;;;12.07;8.93;;;;;;;16.28;84.58;100549.22;6194179;23;20055;-81
2021/09/04 00:30:12;;;;;;;11.80;8.43;;;;;;;16.28;84.64;100554.56;6222009;23;20075;-81
2021/09/04 00:32:39;;;;;;;11.93;8.95;;;;;;;16.26;84.44;100552.97;6219836;23;20020;-81
2021/09/04 00:35:06;;;;;;;12.15;8.57;;;;;;;16.24;84.80;100552.19;6206947;23;20020;-81
2021/09/04 00:37:34;;;;;;;10.07;7.97;;;;;;;16.23;84.75;100547.81;6220465;23;20382;-81
2021/09/04 00:40:02;;;;;;;10.73;8.45;;;;;;;16.22;84.72;100554.13;6218937;23;20056;-81
2021/09/04 00:42:28;;;;;;;10.88;8.65;;;;;;;16.20;84.89;100548.06;6221806;23;20020;-81
2021/09/04 00:44:57;;;;;;;10.65;7.88;;;;;;;16.17;84.83;100551.78;6231654;23;20345;-81
2021/09/04 00:47:23;;;;;;;10.60;8.27;;;;;;;16.15;84.90;100548.34;6222681;23;20024;-81
2021/09/04 00:49:50;;;;;;;10.63;8.00;;;;;;;16.15;85.11;100548.34;6221861;23;20526;-82
2021/09/04 00:52:18;;;;;;;11.07;7.95;;;;;;;16.11;84.91;100545.03;6236484;23;20015;-81
2021/09/04 00:54:46;;;;;;;12.70;9.13;;;;;;;16.11;84.72;100546.84;6226320;23;20048;-81
2021/09/04 00:57:16;;;;;;;15.45;9.20;;;;;;;16.09;84.53;100549.63;6225592;23;20024;-82
2021/09/04 00:59:45;;;;;;;13.43;9.27;;;;;;;16.02;84.97;100542.13;6220428;23;20024;-81
2021/09/04 01:02:16;;;;;;;11.65;9.00;;;;;;;16.03;85.12;100549.19;6221290;23;20020;-81
2021/09/04 01:04:43;;;;;;;12.77;9.23;;;;;;;15.97;85.00;100546.91;6220047;23;20048;-81
2021/09/04 01:07:12;;;;;;;13.25;8.90;;;;;;;15.95;84.96;100546.16;6221462;23;20024;-82
2021/09/04 01:09:40;;;;;;;12.98;8.75;;;;;;;15.93;84.92;100550.75;6222494;23;20084;-81
2021/09/04 01:12:08;;;;;;;13.75;8.85;;;;;;;15.89;84.93;100539.44;6225223;23;20128;-81
2021/09/04 01:14:34;;;;;;;12.23;9.05;;;;;;;15.89;85.01;100552.78;6225340;23;20016;-81
2021/09/04 01:17:01;;;;;;;11.50;9.02;;;;;;;15.85;85.04;100550.41;6225958;23;20020;-81
2021/09/04 01:19:28;;;;;;;12.48;9.30;;;;;;;15.81;85.04;100548.88;6225653;23;20120;-81
2021/09/04 01:21:55;;;;;;;13.98;9.10;;;;;;;15.77;85.25;100546.41;6224578;23;20037;-82
2021/09/04 01:24:23;;;;;;;12.20;8.82;;;;;;;15.76;85.26;100546.50;6232545;23;20088;-81
2021/09/04 01:26:50;;;;;;;12.00;8.70;;;;;;;15.72;85.82;100543.22;6223131;23;20024;-81
2021/09/04 01:29:17;;;;;;;10.70;8.63;;;;;;;15.69;85.59;100538.06;6234261;23;20027;-81
2021/09/04 01:31:44;;;;;;;12.95;8.85;;;;;;;15.66;85.86;100540.94;6240954;23;20005;-81
2021/09/04 01:34:12;;;;;;;12.38;9.25;;;;;;;15.64;85.81;100533.97;6240242;23;20032;-80
2021/09/04 01:36:39;;;;;;;11.50;9.25;;;;;;;15.64;86.13;100536.66;6241166;23;20009;-81
2021/09/04 01:39:07;;;;;;;12.45;8.57;;;;;;;15.59;86.28;100528.94;6241890;23;20031;-80
2021/09/04 01:41:37;;;;;;;12.23;9.07;;;;;;;15.60;86.67;100536.00;6242358;23;20047;-80
2021/09/04 01:44:04;;;;;;;13.15;8.80;;;;;;;15.61;86.57;100540.38;6240336;23;20025;-80
2021/09/04 01:46:34;;;;;;;13.05;8.88;;;;;;;15.60;86.55;100544.00;6241920;23;20005;-80
2021/09/04 01:49:01;;;;;;;12.43;9.05;;;;;;;15.60;86.45;100538.66;6241808;23;20036;-80
2021/09/04 01:51:28;;;;;;;12.65;9.25;;;;;;;15.58;86.36;100537.94;6242773;23;20017;-80
2021/09/04 01:53:55;;;;;;;13.10;8.95;;;;;;;15.56;86.43;100542.50;6242024;23;20072;-79
2021/09/04 01:56:21;;;;;;;10.75;9.13;;;;;;;15.54;86.55;100540.84;6242951;23;20032;-80
2021/09/04 01:58:48;;;;;;;14.10;9.45;;;;;;;15.55;86.55;100539.91;6244064;23;20076;-81
2021/09/04 02:01:15;;;;;;;13.30;9.20;;;;;;;15.54;86.55;100544.38;6242884;23;20051;-81
2021/09/04 02:03:42;;;;;;;11.90;9.40;;;;;;;15.53;86.72;100539.13;6242276;23;20023;-81
2021/09/04 02:06:10;;;;;;;12.35;9.38;;;;;;;15.50;86.52;100521.50;6216927;23;20005;-81
2021/09/04 02:08:40;;;;;;;13.07;9.15;;;;;;;15.51;86.37;100531.22;6239714;23;20016;-80
2021/09/04 02:11:07;;;;;;;11.75;9.15;;;;;;;15.47;86.32;100531.53;6229370;23;20024;-81
2021/09/04 02:13:33;;;;;;;13.07;9.30;;;;;;;15.44;86.41;100532.56;6220583;23;20016;-81
2021/09/04 02:16:00;;;;;;;12.48;9.50;;;;;;;15.41;86.68;100532.78;6193066;23;20334;-80
2021/09/04 02:18:29;;;;;;;14.00;9.48;;;;;;;15.34;86.53;100537.66;6218689;23;20024;-82
2021/09/04 02:20:55;;;;;;;12.52;9.57;;;;;;;15.29;86.83;100531.75;6218684;23;20390;-81
2021/09/04 02:23:22;;;;;;;13.93;9.98;;;;;;;15.28;87.11;100537.19;6218152;23;20021;-81
2021/09/04 02:25:48;;;;;;;12.43;9.40;;;;;;;15.27;87.42;100538.13;6220061;23;20087;-81
2021/09/04 02:28:15;;;;;;;12.55;9.98;;;;;;;15.23;87.36;100531.31;6192081;23;20027;-81
2021/09/04 02:30:42;;;;;;;13.38;9.50;;;;;;;15.19;87.37;100524.44;6218616;23;20021;-81
2021/09/04 02:33:10;;;;;;;10.73;8.82;;;;;;;15.15;87.39;100529.13;6218228;23;20025;-82
2021/09/04 02:35:38;;;;;;;12.60;9.57;;;;;;;15.15;87.66;100518.44;6192586;23;20029;-81
2021/09/04 02:38:07;;;;;;;14.45;10.18;;;;;;;15.11;87.61;100521.44;6221617;23;20096;-82
2021/09/04 02:40:45;;;;;;;13.43;9.60;;;;;;;15.03;87.95;100522.75;6221068;23;20020;-81
2021/09/04 02:43:11;;;;;;;15.00;10.20;;;;;;;14.97;88.01;100517.81;6190047;23;20020;-81
2021/09/04 02:45:38;;;;;;;15.00;9.98;;;;;;;14.93;88.54;100524.31;6190345;23;20092;-81
2021/09/04 02:48:06;;;;;;;11.77;9.70;;;;;;;14.92;89.23;100527.06;6189709;23;20064;-83
2021/09/04 02:50:33;;;;;;;13.65;10.10;;;;;;;14.94;88.71;100526.03;6193261;23;20029;-83
2021/09/04 02:53:02;;;;;;;13.48;10.15;;;;;;;14.94;89.12;100527.81;6180102;23;20025;-79
2021/09/04 02:55:31;;;;;;;17.05;10.63;;;;;;;14.92;89.07;100527.06;6200875;23;20073;-79
2021/09/04 02:57:58;;;;;;;14.05;9.93;;;;;;;14.94;89.06;100523.34;6199165;23;20045;-82
2021/09/04 03:00:25;;;;;;;13.38;10.38;;;;;;;14.88;88.63;100515.72;6202807;23;20021;-83
2021/09/04 03:02:51;;;;;;;13.05;10.05;;;;;;;14.90;88.89;100519.16;6200118;23;20083;-82
2021/09/04 03:05:18;;;;;;;12.65;9.57;;;;;;;14.87;88.94;100516.69;6189718;23;20025;-83
2021/09/04 03:07:45;;;;;;;13.43;9.63;;;;;;;14.88;88.92;100514.88;6187479;23;20017;-82
2021/09/04 03:10:13;;;;;;;14.65;10.50;;;;;;;14.84;88.71;100511.53;6187999;23;20099;-83
2021/09/04 03:12:42;;;;;;;12.73;10.45;;;;;;;14.83;88.83;100515.16;6188410;23;20023;-83
2021/09/04 03:15:09;;;;;;;15.93;10.88;;;;;;;14.82;89.19;100517.91;6187522;23;20029;-82
2021/09/04 03:17:36;;;;;;;16.13;10.63;;;;;;;14.81;89.07;100519.72;6162463;23;20021;-83
2021/09/04 03:20:03;;;;;;;15.05;10.25;;;;;;;14.83;89.60;100522.28;6190270;23;20017;-83
2021/09/04 03:22:30;;;;;;;13.70;10.73;;;;;;;14.83;89.17;100515.16;6196284;23;20542;-83
2021/09/04 03:24:59;;;;;;;15.13;10.68;;;;;;;14.86;89.08;100512.28;6196151;23;20025;-82
2021/09/04 03:27:26;;;;;;;15.90;10.00;;;;;;;14.85;89.23;100515.06;6197177;23;20025;-83
2021/09/04 03:29:53;;;;;;;15.18;11.10;;;;;;;14.86;89.18;100512.28;6190202;23;20100;-82
2021/09/04 03:32:19;;;;;;;18.00;10.77;;;;;;;14.84;89.21;100511.53;6187561;23;20017;-83
2021/09/04 03:34:46;;;;;;;14.10;11.02;;;;;;;14.83;89.39;100512.47;6187168;23;20099;-83
2021/09/04 03:37:13;;;;;;;13.95;10.45;;;;;;;14.82;89.54;100505.44;6187874;23;20020;-82
2021/09/04 03:39:40;;;;;;;15.20;10.73;;;;;;;14.85;89.53;100515.91;6188089;23;20101;-83
2021/09/04 03:42:06;;;;;;;16.52;10.90;;;;;;;14.86;89.40;100506.97;6186261;23;20470;-83
2021/09/04 03:44:33;;;;;;;14.40;10.30;;;;;;;14.87;89.36;100503.34;6187514;23;20107;-83
2021/09/04 03:47:00;;;;;;;13.57;10.50;;;;;;;14.85;89.34;100499.91;6187048;23;20013;-83
2021/09/04 03:49:26;;;;;;;14.25;10.93;;;;;;;14.89;89.45;100505.91;6186400;23;20021;-82
2021/09/04 03:51:53;;;;;;;14.85;11.30;;;;;;;14.91;89.25;100507.53;6185341;23;20502;-82
2021/09/04 03:54:20;;;;;;;18.70;10.93;;;;;;;14.91;89.22;100507.53;6187355;23;20017;-82
2021/09/04 03:56:46;;;;;;;15.93;10.98;;;;;;;14.92;89.28;100511.91;6160949;23;20095;-83
2021/09/04 03:59:13;;;;;;;13.15;10.45;;;;;;;14.89;89.24;100498.78;6188102;23;20031;-83
2021/09/04 04:01:40;;;;;;;18.73;11.07;;;;;;;14.91;89.58;100506.69;6190799;23;20021;-83
2021/09/04 04:04:07;;;;;;;14.55;10.60;;;;;;;14.90;89.49;100510.31;6207273;23;20052;-83
2021/09/04 04:06:34;;;;;;;13.70;10.43;;;;;;;14.88;89.28;100502.41;6209165;23;20028;-82
2021/09/04 04:09:00;;;;;;;16.98;11.02;;;;;;;14.88;89.40;100510.41;6196470;23;20020;-83
2021/09/04 04:11:27;;;;;;;14.70;10.63;;;;;;;14.87;89.24;100513.16;6194260;23;20031;-82
2021/09/04 04:13:57;;;;;;;;;;;;;;;14.87;89.41;100516.69;6206728;23;20411;-82
2021/09/04 04:16:24;;;;;;;16.98;11.07;;;;;;;14.85;89.41;100510.56;6205822;23;19944;-82
2021/09/04 04:18:51;;;;;;;17.33;12.00;;;;;;;14.85;89.53;100518.56;6207261;23;20044;-82
2021/09/04 04:21:17;;;;;;;14.75;11.10;;;;;;;14.81;89.79;100518.84;6195238;23;20394;-83
2021/09/04 04:23:44;;;;;;;15.43;11.02;;;;;;;14.76;89.80;100518.31;6162657;23;20017;-83
2021/09/04 04:26:11;;;;;;;18.20;11.48;;;;;;;14.74;90.11;100518.41;6187152;23;20013;-82
2021/09/04 04:28:38;;;;;;;21.27;12.38;;;;;;;14.73;90.08;100519.34;6164861;23;20095;-83
2021/09/04 04:31:04;;;;;;;14.80;11.15;;;;;;;14.72;90.11;100520.28;6192426;23;20036;-82
2021/09/04 04:33:31;;;;;;;17.17;12.13;;;;;;;14.72;90.17;100523.81;6192587;23;20024;-83
2021/09/04 04:35:58;;;;;;;16.88;11.52;;;;;;;14.65;90.07;100514.47;6204734;23;20021;-83
2021/09/04 04:38:25;;;;;;;17.73;11.55;;;;;;;14.66;90.34;100521.53;6202232;23;20025;-82
2021/09/04 04:40:54;;;;;;;15.38;11.52;;;;;;;14.69;90.43;100523.16;6192574;23;20064;-82
2021/09/04 04:43:21;;;;;;;16.73;11.45;;;;;;;14.69;90.51;100525.81;6162733;23;20027;-83
2021/09/04 04:45:48;;;;;;;16.98;11.93;;;;;;;14.67;90.48;100522.38;6192109;23;20024;-83
2021/09/04 04:48:19;;;;;;;14.57;11.20;;;;;;;14.69;90.49;100526.66;6190034;23;20021;-83
2021/09/04 04:50:46;;;;;;;14.93;11.38;;;;;;;14.68;90.76;100529.44;6189930;23;20021;-83
2021/09/04 04:53:13;;;;;;;18.55;12.00;;;;;;;14.69;90.54;100525.81;6189511;23;20021;-83
2021/09/04 04:55:40;;;;;;;16.30;11.73;;;;;;;14.68;90.75;100532.94;6190569;23;20025;-83
2021/09/04 04:58:07;;;;;;;15.43;11.30;;;;;;;14.72;90.46;100528.28;6187945;23;20132;-83
2021/09/04 05:00:34;;;;;;;15.32;11.38;;;;;;;14.72;90.88;100531.81;6187752;23;20104;-83
2021/09/04 05:03:03;;;;;;;16.80;11.05;;;;;;;14.73;90.78;100530.88;6189997;23;20025;-83
2021/09/04 05:05:32;;;;;;;14.15;11.10;;;;;;;14.76;90.58;100526.31;6187834;23;20045;-82
2021/09/04 05:08:00;;;;;;;16.20;11.98;;;;;;;14.76;90.53;100532.50;6161415;23;20347;-82
2021/09/04 05:10:27;;;;;;;18.25;11.35;;;;;;;14.77;90.44;100530.69;6186959;23;20493;-83
2021/09/04 05:12:53;;;;;;;15.38;11.60;;;;;;;14.76;90.04;100532.50;6185970;23;20125;-82
2021/09/04 05:15:22;;;;;;;19.90;13.95;;;;;;;14.80;90.12;100534.00;6186889;23;20048;-83
2021/09/04 05:17:49;;;;;;;15.82;11.50;;;;;;;14.77;90.09;100528.88;6187456;23;20055;-83
2021/09/04 05:20:15;;;;;;;18.60;11.07;;;;;;;14.81;90.04;100541.03;6162619;23;20405;-82
2021/09/04 05:22:46;;;;;;;16.48;12.18;;;;;;;14.79;89.83;100537.63;6191827;23;20108;-82
2021/09/04 05:25:16;;;;;;;16.08;12.18;;;;;;;14.77;90.02;100534.22;6197946;23;20049;-82
2021/09/04 05:27:45;;;;;;;17.00;12.43;;;;;;;14.80;89.96;100546.47;6202288;23;20087;-82
2021/09/04 05:30:12;;;;;;;16.48;11.52;;;;;;;14.80;90.38;100539.31;6193058;23;20116;-81
2021/09/04 05:32:39;;;;;;;17.38;11.32;;;;;;;14.84;89.81;100543.53;6189213;23;20102;-82
2021/09/04 05:35:06;;;;;;;18.17;11.20;;;;;;;14.84;89.70;100543.53;6188975;23;20039;-82
2021/09/04 05:37:34;;;;;;;15.50;11.68;;;;;;;14.88;89.73;100542.38;6198701;23;20017;-81
2021/09/04 05:40:01;;;;;;;16.83;11.40;;;;;;;14.91;89.30;100541.34;6210117;23;20020;-80
2021/09/04 05:42:29;;;;;;;17.55;12.15;;;;;;;14.93;89.41;100539.44;6212683;23;20009;-80
2021/09/04 05:44:56;;;;;;;15.88;12.05;;;;;;;14.96;89.26;100539.22;6212718;23;20032;-82
2021/09/04 05:47:23;;;;;;;18.75;12.55;;;;;;;14.96;88.80;100548.09;6194555;23;20128;-82
2021/09/04 05:49:49;;;;;;;15.45;12.05;;;;;;;14.97;88.82;100547.13;6196802;23;20069;-81
2021/09/04 05:52:16;;;;;;;17.85;12.48;;;;;;;14.96;88.89;100539.22;6202717;23;20041;-82
2021/09/04 05:54:42;;;;;;;18.25;12.20;;;;;;;14.96;88.83;100540.09;6188967;23;20029;-82
2021/09/04 05:57:09;;;;;;;14.82;11.27;;;;;;;15.01;88.65;100540.66;6189369;23;20025;-82
2021/09/04 05:59:36;;;;;;;16.52;12.25;;;;;;;15.06;88.89;100535.91;6187705;23;20044;-82
2021/09/04 06:02:04;;;;;;;17.77;11.00;;;;;;;15.10;88.55;100536.56;6163700;23;20104;-82
2021/09/04 06:04:30;;;;;;;19.10;11.05;;;;;;;15.16;88.69;100535.31;6163829;23;20025;-82
2021/09/04 06:06:57;;;;;;;17.63;11.65;;;;;;;15.21;88.94;100538.56;6202235;23;20065;-81
2021/09/04 06:09:24;;;;;;;16.17;11.75;;;;;;;15.28;88.61;100542.53;6198821;23;20041;-82
2021/09/04 06:11:51;;;;;;;17.23;12.18;;;;;;;15.34;88.48;100540.31;6192325;23;20096;-82
2021/09/04 06:14:17;;;;;;;16.55;11.60;;;;;;;15.42;88.49;100532.66;6192165;23;20104;-82
2021/09/04 06:16:44;;;;;;;15.57;10.40;;;;;;;15.52;88.33;100540.09;6205036;23;20036;-81
2021/09/04 06:19:10;;;;;;;15.35;11.35;;;;;;;15.67;88.75;100539.97;6210574;23;20036;-81
2021/09/04 06:21:37;;;;;;;16.85;11.60;;;;;;;15.76;87.74;100536.69;6186705;23;20021;-81
2021/09/04 06:24:04;;;;;;;19.05;12.27;;;;;;;15.86;86.48;100536.97;6210956;23;20451;-81
2021/09/04 06:26:31;;;;;;;15.13;11.57;;;;;;;15.97;85.52;100544.25;6198013;23;20147;-82
2021/09/04 06:28:58;;;;;;;15.10;11.35;;;;;;;16.06;85.44;100547.13;6197674;23;20072;-82
2021/09/04 06:31:25;;;;;;;15.18;10.73;;;;;;;16.17;85.33;100549.13;6192808;23;20013;-82
2021/09/04 06:33:52;;;;;;;17.27;10.85;;;;;;;16.26;84.65;100545.81;6194153;23;20081;-82
2021/09/04 06:36:18;;;;;;;16.13;11.02;;;;;;;16.40;83.49;100536.84;6193752;23;20076;-82
2021/09/04 06:38:45;;;;;;;15.05;10.55;;;;;;;16.58;83.00;100535.56;6191196;23;20101;-82
2021/09/04 06:41:12;;;;;;;16.45;10.18;;;;;;;16.78;82.38;100542.25;6190284;23;20021;-81
2021/09/04 06:43:38;;;;;;;14.68;10.65;;;;;;;17.01;81.80;100543.25;6190198;23;20409;-82
2021/09/04 06:46:05;;;;;;;14.68;9.93;;;;;;;17.29;79.60;100531.47;6189204;23;20031;-82
2021/09/04 06:48:32;;;;;;;14.20;10.65;;;;;;;17.64;77.50;100543.13;6189820;23;20021;-82
2021/09/04 06:50:59;;;;;;;14.52;10.30;;;;;;;18.04;74.93;100530.28;6191377;23;20338;-83
2021/09/04 06:53:26;;;;;;;12.75;9.88;;;;;;;18.37;73.05;100534.91;6190176;23;20144;-83
2021/09/04 06:55:55;;;;;;;15.68;10.00;;;;;;;18.61;71.67;100529.50;6186693;23;20019;-83
2021/09/04 06:58:22;;;;;;;13.90;9.98;;;;;;;18.78;70.41;100528.16;6188199;23;20330;-82
2021/09/04 07:00:50;;;;;;;13.25;9.45;;;;;;;19.01;70.17;100537.09;6189625;23;20031;-82
2021/09/04 07:03:18;;;;;;;13.60;9.35;;;;;;;19.18;69.38;100534.75;6187833;23;20017;-89
2021/09/04 07:05:45;;;;;;;14.75;9.90;;;;;;;19.36;68.43;100534.25;6190299;23;20048;-83
2021/09/04 07:08:12;;;;;;;12.18;9.55;;;;;;;19.54;66.71;100538.97;6191165;23;20036;-83
2021/09/04 07:10:41;;;;;;;12.13;9.32;;;;;;;19.64;66.92;100539.09;6162262;23;20017;-85
2021/09/04 07:13:09;;;;;;;10.93;9.05;;;;;;;19.78;66.48;100532.59;6190266;23;20391;-83
2021/09/04 07:15:36;;;;;;;13.93;9.00;;;;;;;19.93;66.54;100528.63;6189964;23;20097;-83
2021/09/04 07:18:04;;;;;;;14.65;9.73;;;;;;;20.03;65.35;100537.59;6164420;23;20427;-84
2021/09/04 07:20:31;;;;;;;13.60;9.75;;;;;;;20.14;64.59;100539.41;6195772;23;20071;-84
2021/09/04 07:22:57;;;;;;;11.60;9.32;;;;;;;20.15;64.69;100539.25;6196688;23;20051;-84
2021/09/04 07:25:24;;;;;;;13.00;9.23;;;;;;;20.21;64.02;100536.06;6197659;23;20048;-83
2021/09/04 07:27:52;;;;;;;12.30;8.88;;;;;;;20.27;63.28;100530.16;6165774;23;20017;-85
2021/09/04 07:30:19;;;;;;;12.80;9.23;;;;;;;20.29;64.08;100544.34;6190020;23;20424;-83
2021/09/04 07:32:45;;;;;;;10.77;8.68;;;;;;;20.31;63.75;100542.34;6192705;23;20459;-80
2021/09/04 07:35:13;;;;;;;12.05;9.00;;;;;;;20.42;63.50;100554.06;6192223;23;20025;-84
2021/09/04 07:37:40;;;;;;;15.05;8.90;;;;;;;20.46;63.55;100552.84;6189545;23;20032;-83
2021/09/04 07:40:07;;;;;;;11.45;9.60;;;;;;;20.44;62.70;100557.50;6190684;23;20028;-84
2021/09/04 07:42:34;;;;;;;11.88;9.07;;;;;;;20.40;63.15;100558.72;6191856;23;20573;-83
2021/09/04 07:45:01;;;;;;;15.40;9.07;;;;;;;20.30;62.47;100559.47;6166939;23;20027;-85
2021/09/04 07:47:32;;;;;;;11.07;9.27;;;;;;;20.27;63.21;100561.59;6183704;23;20036;-84
2021/09/04 07:49:58;;;;;;;10.82;8.65;;;;;;;20.22;63.55;100564.66;6185351;23;20033;-83
2021/09/04 07:52:25;;;;;;;13.52;9.00;;;;;;;20.20;64.10;100555.84;6210989;23;20068;-85
2021/09/04 07:54:52;;;;;;;11.40;8.70;;;;;;;20.29;64.50;100559.63;6209402;23;20017;-84
2021/09/04 07:57:18;;;;;;;11.63;8.60;;;;;;;20.38;63.94;100561.53;6166723;23;20075;-84
2021/09/04 07:59:46;;;;;;;13.82;9.40;;;;;;;20.45;63.57;100565.44;6191050;23;20675;-83
2021/09/04 08:02:13;;;;;;;12.27;8.60;;;;;;;20.49;63.45;100557.94;6164657;23;20017;-84
2021/09/04 08:04:40;;;;;;;11.68;8.85;;;;;;;20.48;63.63;100559.75;6189697;23;20017;-83
2021/09/04 08:07:07;;;;;;;13.75;8.82;;;;;;;20.57;63.95;100558.13;6189516;23;20025;-83
2021/09/04 08:09:34;;;;;;;10.93;8.48;;;;;;;20.65;63.39;100559.16;6189963;23;20085;-84
2021/09/04 08:12:01;;;;;;;12.43;8.63;;;;;;;20.71;62.16;100554.25;6192564;23;20025;-84
2021/09/04 08:14:28;;;;;;;11.30;8.10;;;;;;;20.67;62.79;100567.97;6190508;23;20032;-84
2021/09/04 08:16:56;;;;;;;11.75;8.13;;;;;;;20.72;62.15;100567.59;6193102;23;20077;-83
2021/09/04 08:19:24;;;;;;;13.13;8.55;;;;;;;20.80;62.32;100558.81;6204971;23;20028;-82
2021/09/04 08:21:52;;;;;;;12.40;8.00;;;;;;;20.89;61.36;100561.59;6210937;23;20454;-83
2021/09/04 08:24:20;;;;;;;12.60;8.15;;;;;;;20.98;62.28;100568.00;6208833;23;20037;-82
2021/09/04 08:26:47;;;;;;;9.70;7.68;;;;;;;21.06;60.54;100570.03;6203678;23;20028;-82
2021/09/04 08:29:13;;;;;;;12.02;8.07;;;;;;;21.07;60.65;100564.50;6189457;23;20021;-84
2021/09/04 08:31:41;;;;;;;11.77;8.07;;;;;;;21.04;61.27;100567.47;6187575;23;20021;-83
2021/09/04 08:34:09;;;;;;;10.88;8.10;;;;;;;20.97;61.35;100564.44;6187225;23;20017;-84
2021/09/04 08:36:35;;;;;;;10.93;8.50;;;;;;;20.98;61.93;100562.59;6186778;23;20108;-84
2021/09/04 08:39:02;;;;;;;9.38;7.70;;;;;;;21.05;62.10;100561.09;6189634;23;20630;-83
2021/09/04 08:41:30;;;;;;;12.95;8.55;;;;;;;21.19;60.78;100566.16;6192007;23;20048;-83
2021/09/04 08:43:58;;;;;;;11.65;7.90;;;;;;;21.28;61.97;100565.31;6192500;23;20077;-84
2021/09/04 08:46:32;;;;;;;8.70;7.32;;;;;;;21.32;60.88;100568.59;6203214;23;20049;-84
2021/09/04 08:49:01;;;;;;;10.25;7.50;;;;;;;21.31;59.75;100562.34;6176896;23;20013;-83
2021/09/04 08:51:28;;;;;;;9.77;7.28;;;;;;;21.33;60.63;100568.47;6200757;23;20104;-84
2021/09/04 08:53:54;;;;;;;9.95;7.05;;;;;;;21.31;59.73;100570.44;6162211;23;20021;-84
2021/09/04 08:56:23;;;;;;;9.13;7.05;;;;;;;21.22;59.34;100576.66;6196420;23;20017;-83
2021/09/04 08:58:53;;;;;;;10.63;7.60;;;;;;;21.15;60.21;100577.28;6188239;23;20025;-83
2021/09/04 09:01:23;;;;;;;9.50;7.18;;;;;;;21.09;60.65;100572.44;6185692;23;20037;-83
2021/09/04 09:03:54;;;;;;;10.95;7.68;;;;;;;21.07;60.72;100566.34;6161637;23;20155;-83
2021/09/04 09:06:35;;;;;;;11.88;7.50;;;;;;;20.99;60.15;100575.94;6188144;23;20060;-82
2021/09/04 09:09:33;;;;;;;10.43;7.90;;;;;;;20.89;61.87;100569.66;6188061;23;20036;-83
2021/09/04 09:12:10;;;;;;;11.38;7.80;;;;;;;20.87;62.27;100566.25;6163954;23;20025;-83
2021/09/04 09:14:55;;;;;;;10.88;7.45;;;;;;;20.90;62.46;100565.97;6186349;23;20029;-83
2021/09/04 09:17:25;;;;;;;9.85;7.35;;;;;;;21.02;62.49;100572.13;6187621;23;20021;-82
2021/09/04 09:20:14;;;;;;;9.57;7.53;;;;;;;21.18;62.03;100567.09;6186362;23;20025;-82
2021/09/04 09:22:44;;;;;;;7.68;6.63;;;;;;;21.28;61.81;100562.63;6161542;23;20013;-82
2021/09/04 09:25:15;;;;;;;10.90;7.70;;;;;;;21.40;61.19;100565.22;6196010;23;20072;-82
2021/09/04 09:28:03;;;;;;;8.93;6.72;;;;;;;21.50;60.87;100558.88;6208135;23;20032;-82
2021/09/04 09:30:36;;;;;;;8.25;6.88;;;;;;;21.53;58.86;100549.66;6209697;23;20012;-83
2021/09/04 09:33:04;;;;;;;10.18;7.07;;;;;;;21.59;59.84;100557.19;6205399;23;20048;-83
2021/09/04 09:35:35;;;;;;;9.32;7.55;;;;;;;21.67;60.07;100554.66;6203235;23;20021;-82
2021/09/04 09:38:05;;;;;;;11.00;7.63;;;;;;;21.74;59.72;100550.38;6206867;23;20611;-82
2021/09/04 09:40:32;;;;;;;8.10;6.50;;;;;;;21.82;59.65;100552.41;6203196;23;20068;-82
2021/09/04 09:42:59;;;;;;;9.90;6.75;;;;;;;21.91;58.21;100557.78;6199489;23;20096;-83
2021/09/04 09:45:49;;;;;;;9.63;7.35;;;;;;;21.95;58.21;100548.44;6198942;23;20059;-83
2021/09/04 09:48:22;;;;;;;10.43;7.72;;;;;;;21.99;57.76;100547.19;6164199;23;20021;-83
2021/09/04 09:50:51;;;;;;;8.70;6.95;;;;;;;22.04;57.37;100547.59;6190639;23;20021;-83
2021/09/04 09:53:20;;;;;;;9.75;8.10;;;;;;;22.08;58.19;100547.31;6199580;23;20081;-83
2021/09/04 09:55:48;;;;;;;10.10;7.95;;;;;;;22.12;58.83;100549.59;6196941;23;20116;-83
2021/09/04 09:58:17;;;;;;;11.18;8.20;;;;;;;22.22;58.62;100542.34;6198709;23;20036;-83
2021/09/04 10:00:44;;;;;;;9.35;7.10;;;;;;;22.37;57.43;100553.56;6203461;23;20021;-83
2021/09/04 10:03:12;;;;;;;7.63;6.28;;;;;;;22.44;55.13;100549.31;6208588;23;20047;-82
2021/09/04 10:05:42;;;;;;;8.68;6.80;;;;;;;22.49;56.75;100546.19;6209203;23;20064;-82
2021/09/04 10:08:13;;;;;;;8.52;7.05;;;;;;;22.59;57.01;100542.44;6196457;23;20073;-83
2021/09/04 10:10:39;;;;;;;9.07;6.78;;;;;;;22.70;57.55;100541.41;6206325;23;20144;-83
2021/09/04 10:13:07;;;;;;;8.80;7.43;;;;;;;22.82;56.45;100543.00;6209268;23;20033;-82
2021/09/04 10:15:36;;;;;;;8.40;7.10;;;;;;;22.90;56.02;100540.41;6211133;23;20048;-81
2021/09/04 10:18:06;;;;;;;9.85;6.65;;;;;;;23.01;54.52;100542.06;6210047;23;20036;-81
2021/09/04 10:20:35;;;;;;;8.75;6.78;;;;;;;23.04;54.56;100533.66;6211811;23;20083;-81
2021/09/04 10:23:34;;;;;;;7.82;6.70;;;;;;;23.11;55.18;100533.94;6208178;23;20402;-83
2021/09/04 10:26:20;;;;;;;7.97;7.07;;;;;;;23.24;55.05;100535.28;6208312;23;20044;-83
2021/09/04 10:29:09;;;;;;;9.48;7.18;;;;;;;23.34;55.37;100536.06;6193590;23;20105;-83
2021/09/04 10:31:43;;;;;;;8.52;6.53;;;;;;;23.47;53.45;100534.84;6163336;23;20334;-83
2021/09/04 10:34:17;;;;;;;9.85;6.50;;;;;;;23.52;52.76;100543.41;6188849;23;20077;-83
2021/09/04 10:37:01;;;;;;;8.88;6.10;;;;;;;23.59;52.37;100531.00;6190520;23;20021;-83
2021/09/04 10:39:53;;;;;;;11.38;6.40;;;;;;;23.66;52.45;100532.94;6190125;23;20021;-83
2021/09/04 10:42:25;;;;;;;8.43;6.47;;;;;;;23.67;51.73;100518.41;6190259;23;20097;-83
2021/09/04 10:45:17;;;;;;;9.10;7.00;;;;;;;23.74;51.76;100518.66;6188787;23;20017;-83
2021/09/04 10:47:55;;;;;;;7.32;5.70;;;;;;;23.82;51.87;100524.13;6178785;23;20017;-83
2021/09/04 10:50:31;;;;;;;7.65;6.25;;;;;;;23.90;50.30;100518.81;6211993;23;20013;-83
2021/09/04 10:53:05;;;;;;;7.85;6.85;;;;;;;23.90;50.26;100512.56;6197844;23;20036;-84
2021/09/04 10:55:40;;;;;;;8.07;6.30;;;;;;;23.91;51.32;100500.75;6191294;23;20025;-83
2021/09/04 10:58:08;;;;;;;8.68;6.32;;;;;;;23.99;50.34;100506.19;6189562;23;20041;-83
2021/09/04 11:00:42;;;;;;;8.45;6.20;;;;;;;24.00;50.41;100508.75;6163588;23;20013;-82
2021/09/04 11:03:13;;;;;;;9.00;6.57;;;;;;;24.08;50.28;100506.09;6187532;23;20024;-83
2021/09/04 11:05:54;;;;;;;9.88;6.25;;;;;;;24.21;50.95;100504.88;6188500;23;20639;-84
2021/09/04 11:08:27;;;;;;;8.93;6.32;;;;;;;24.31;49.60;100506.50;6188148;23;20046;-83
2021/09/04 11:11:19;;;;;;;8.77;6.45;;;;;;;24.38;48.72;100506.75;6186082;23;20024;-83
2021/09/04 11:13:59;;;;;;;7.07;6.30;;;;;;;24.28;48.62;100504.09;6185874;23;20021;-83
2021/09/04 11:16:26;;;;;;;7.03;5.82;;;;;;;24.32;50.22;100497.38;6161623;23;20108;-82
2021/09/04 11:18:54;;;;;;;9.63;6.35;;;;;;;24.40;49.66;100497.41;6187145;23;20025;-83
2021/09/04 11:21:21;;;;;;;7.38;6.18;;;;;;;24.44;49.37;100490.69;6187594;23;20021;-82
2021/09/04 11:23:50;;;;;;;8.43;6.20;;;;;;;24.42;49.15;100494.56;6187203;23;20374;-83